createdAt,value
2023-05-22T00:01:39.418Z,94157.00
2023-05-22T00:05:43.077Z,94162.00
2023-05-22T00:09:47.969Z,94157.00
2023-05-22T00:13:51.607Z,94154.00
2023-05-22T00:17:55.403Z,94147.00
2023-05-22T00:21:58.948Z,94141.00
2023-05-22T00:26:04.463Z,94146.00
2023-05-22T00:30:09.687Z,94140.00
2023-05-22T00:34:13.197Z,94140.00
2023-05-22T00:38:30.665Z,94136.00
2023-05-22T00:42:35.563Z,94142.00
2023-05-22T00:46:39.365Z,94132.00
2023-05-22T00:50:43.178Z,94136.00
2023-05-22T00:54:48.023Z,94135.00
2023-05-22T00:58:52.960Z,94140.00
2023-05-22T01:02:57.088Z,94125.00
2023-05-22T01:07:03.123Z,94133.00
2023-05-22T01:11:12.956Z,94128.00
2023-05-22T01:15:25.467Z,94129.00
2023-05-22T01:19:50.701Z,94125.00
2023-05-22T01:24:28.131Z,94131.00
2023-05-22T01:28:42.705Z,94128.00
2023-05-22T01:32:49.238Z,94122.00
2023-05-22T01:36:54.589Z,94115.00
2023-05-22T01:40:58.992Z,94135.00
2023-05-22T01:45:03.055Z,94137.00
2023-05-22T01:49:09.212Z,94127.00
2023-05-22T01:53:19.926Z,94122.00
2023-05-22T01:57:30.049Z,94124.00
2023-05-22T02:01:36.036Z,94134.00
2023-05-22T02:05:42.120Z,94121.00
2023-05-22T02:09:47.648Z,94115.00
2023-05-22T02:13:51.510Z,94121.00
2023-05-22T02:17:55.092Z,94109.00
2023-05-22T02:22:00.209Z,94112.00
2023-05-22T02:26:03.718Z,94111.00
2023-05-22T02:30:08.821Z,94111.00
2023-05-22T02:34:12.263Z,94118.00
2023-05-22T02:38:17.300Z,94117.00
2023-05-22T02:42:21.573Z,94118.00
2023-05-22T02:46:25.363Z,94108.00
2023-05-22T02:50:29.436Z,94103.00
2023-05-22T02:54:34.480Z,94101.00
2023-05-22T02:58:38.169Z,94101.00
2023-05-22T03:02:43.703Z,94097.00
2023-05-22T03:06:47.218Z,94090.00
2023-05-22T03:10:52.176Z,94109.00
2023-05-22T03:14:55.617Z,94093.00
2023-05-22T03:19:09.659Z,94094.00
2023-05-22T03:23:13.851Z,94089.00
2023-05-22T03:27:19.852Z,94087.00
2023-05-22T03:31:26.293Z,94078.00
2023-05-22T03:35:40.057Z,94074.00
2023-05-22T03:39:43.724Z,94079.00
2023-05-22T03:44:14.419Z,94068.00
2023-05-22T03:48:19.189Z,94077.00
2023-05-22T03:52:23.653Z,94075.00
2023-05-22T03:56:27.249Z,94062.00
2023-05-22T04:00:32.102Z,94061.00
2023-05-22T04:04:38.687Z,94057.00
2023-05-22T04:08:42.443Z,94051.00
2023-05-22T04:12:46.150Z,94045.00
2023-05-22T04:16:51.592Z,94049.00
2023-05-22T04:20:55.234Z,94048.00
2023-05-22T04:25:00.358Z,94037.00
2023-05-22T04:29:03.984Z,94041.00
2023-05-22T04:33:10.776Z,94043.00
2023-05-22T04:37:15.266Z,94034.00
2023-05-22T04:41:21.209Z,94052.00
2023-05-22T04:45:29.094Z,94043.00
2023-05-22T04:49:36.446Z,94046.00
2023-05-22T04:53:39.925Z,94043.00
2023-05-22T04:57:45.372Z,94050.00
2023-05-22T05:01:50.574Z,94053.00
2023-05-22T05:05:56.914Z,94053.00
2023-05-22T05:10:01.069Z,94054.00
2023-05-22T05:14:04.705Z,94066.00
2023-05-22T05:18:09.348Z,94069.00
2023-05-22T05:22:15.405Z,94064.00
2023-05-22T05:26:19.378Z,94066.00
2023-05-22T05:30:23.319Z,94073.00
2023-05-22T05:34:45.576Z,94070.00
2023-05-22T05:39:13.894Z,94075.00
2023-05-22T05:43:17.676Z,94076.00
2023-05-22T05:47:24.135Z,94084.00
2023-05-22T05:51:31.253Z,94078.00
2023-05-22T05:55:36.659Z,94075.00
2023-05-22T05:59:41.086Z,94079.00
2023-05-22T06:04:17.201Z,94099.00
2023-05-22T06:08:28.405Z,94117.00
2023-05-22T06:12:33.810Z,94112.00
2023-05-22T06:16:37.406Z,94112.00
2023-05-22T06:20:41.322Z,94111.00
2023-05-22T06:24:45.070Z,94104.00
2023-05-22T06:28:54.626Z,94104.00
2023-05-22T06:33:00.495Z,94106.00
2023-05-22T06:37:04.694Z,94095.00
2023-05-22T06:41:15.129Z,94093.00
2023-05-22T06:45:20.323Z,94094.00
2023-05-22T06:49:44.040Z,94094.00
2023-05-22T06:53:48.060Z,94102.00
2023-05-22T06:57:57.591Z,94099.00
2023-05-22T07:02:04.975Z,94097.00
2023-05-22T07:06:28.862Z,94098.00
2023-05-22T07:10:32.422Z,94096.00
2023-05-22T07:14:36.355Z,94100.00
2023-05-22T07:18:42.109Z,94097.00
2023-05-22T07:22:45.583Z,94087.00
2023-05-22T07:26:49.901Z,94081.00
2023-05-22T07:30:54.151Z,94090.00
2023-05-22T07:35:00.534Z,94093.00
2023-05-22T07:39:05.226Z,94098.00
2023-05-22T07:43:12.833Z,94085.00
2023-05-22T07:47:17.097Z,94097.00
2023-05-22T07:51:22.157Z,94101.00
2023-05-22T07:55:28.006Z,94092.00
2023-05-22T07:59:33.828Z,94083.00
2023-05-22T08:03:37.739Z,94088.00
2023-05-22T08:07:42.829Z,94089.00
2023-05-22T08:11:46.445Z,94090.00
2023-05-22T08:15:49.853Z,94084.00
2023-05-22T08:19:53.762Z,94085.00
2023-05-22T08:23:59.031Z,94087.00
2023-05-22T08:28:02.524Z,94082.00
2023-05-22T08:32:06.905Z,94071.00
2023-05-22T08:36:10.467Z,94082.00
2023-05-22T08:40:16.493Z,94079.00
2023-05-22T08:44:21.169Z,94080.00
2023-05-22T08:48:26.002Z,94074.00
2023-05-22T08:52:34.480Z,94075.00
2023-05-22T08:56:53.005Z,94064.00
2023-05-22T09:01:00.858Z,94066.00
2023-05-22T09:05:05.533Z,94068.00
2023-05-22T09:09:10.715Z,94072.00
2023-05-22T09:13:26.846Z,94074.00
2023-05-22T09:17:30.481Z,94068.00
2023-05-22T09:21:34.160Z,94086.00
2023-05-22T09:25:37.765Z,94071.00
2023-05-22T09:29:53.769Z,94070.00
2023-05-22T09:33:57.533Z,94080.00
2023-05-22T09:38:01.439Z,94073.00
2023-05-22T09:42:06.270Z,94070.00
2023-05-22T09:46:11.358Z,94071.00
2023-05-22T09:50:14.805Z,94064.00
2023-05-22T09:54:20.250Z,94061.00
2023-05-22T09:58:27.272Z,94065.00
2023-05-22T10:02:33.827Z,94056.00
2023-05-22T10:06:38.525Z,94060.00
2023-05-22T10:10:46.921Z,94054.00
2023-05-22T10:14:50.569Z,94053.00
2023-05-22T10:18:56.439Z,94054.00
2023-05-22T10:23:04.148Z,94053.00
2023-05-22T10:27:07.851Z,94053.00
2023-05-22T10:31:26.593Z,94052.00
2023-05-22T10:36:02.662Z,94052.00
2023-05-22T10:40:11.026Z,94048.00
2023-05-22T10:44:14.744Z,94051.00
2023-05-22T10:48:23.482Z,94053.00
2023-05-22T10:52:28.676Z,94051.00
2023-05-22T10:56:37.029Z,94043.00
2023-05-22T11:00:41.329Z,94035.00
2023-05-22T11:04:45.055Z,94039.00
2023-05-22T11:08:51.611Z,94038.00
2023-05-22T11:13:04.735Z,94025.00
2023-05-22T11:17:08.392Z,94023.00
2023-05-22T11:21:13.808Z,94028.00
2023-05-22T11:25:21.495Z,94019.00
2023-05-22T11:29:25.832Z,94018.00
2023-05-22T11:33:29.785Z,94017.00
2023-05-22T11:37:33.727Z,94003.00
2023-05-22T11:41:38.764Z,94010.00
2023-05-22T11:45:42.233Z,93999.00
2023-05-22T11:49:46.127Z,94001.00
2023-05-22T11:53:49.916Z,94000.00
2023-05-22T11:57:56.818Z,93994.00
2023-05-22T12:02:00.530Z,93999.00
2023-05-22T12:06:04.432Z,93994.00
2023-05-22T12:10:08.540Z,94000.00
2023-05-22T12:14:13.656Z,93994.00
2023-05-22T12:18:19.965Z,93996.00
2023-05-22T12:22:26.447Z,93990.00
2023-05-22T12:26:30.105Z,93999.00
2023-05-22T12:30:43.119Z,93990.00
2023-05-22T12:34:47.978Z,93996.00
2023-05-22T12:38:52.020Z,93991.00
2023-05-22T12:42:55.552Z,93993.00
2023-05-22T12:47:00.563Z,93991.00
2023-05-22T12:51:04.006Z,93989.00
2023-05-22T12:55:08.782Z,93978.00
2023-05-22T12:59:12.194Z,93979.00
2023-05-22T13:03:18.369Z,93988.00
2023-05-22T13:07:21.942Z,93978.00
2023-05-22T13:11:26.755Z,93972.00
2023-05-22T13:15:31.603Z,93979.00
2023-05-22T13:19:36.715Z,93971.00
2023-05-22T13:23:40.517Z,93970.00
2023-05-22T13:27:44.025Z,93969.00
2023-05-22T13:31:47.728Z,93959.00
2023-05-22T13:35:52.755Z,93958.00
2023-05-22T13:39:56.478Z,93954.00
2023-05-22T13:43:59.929Z,93963.00
2023-05-22T13:48:03.735Z,93964.00
2023-05-22T13:52:08.810Z,93965.00
2023-05-22T13:56:12.278Z,93967.00
2023-05-22T14:00:16.565Z,93961.00
2023-05-22T14:04:21.221Z,93959.00
2023-05-22T14:08:26.387Z,93958.00
2023-05-22T14:12:30.051Z,93941.00
2023-05-22T14:16:33.525Z,93941.00
2023-05-22T14:20:37.086Z,93944.00
2023-05-22T14:24:42.135Z,93931.00
2023-05-22T14:28:45.643Z,93926.00
2023-05-22T14:32:49.202Z,93925.00
2023-05-22T14:36:52.616Z,93927.00
2023-05-22T14:40:57.531Z,93927.00
2023-05-22T14:45:00.952Z,93927.00
2023-05-22T14:49:04.843Z,93919.00
2023-05-22T14:53:08.333Z,93920.00
2023-05-22T14:57:14.300Z,93901.00
2023-05-22T15:01:17.926Z,93899.00
2023-05-22T15:05:22.914Z,93896.00
2023-05-22T15:09:26.679Z,93901.00
2023-05-22T15:13:31.792Z,93891.00
2023-05-22T15:17:35.407Z,93896.00
2023-05-22T15:21:39.049Z,93885.00
2023-05-22T15:25:43.730Z,93890.00
2023-05-22T15:29:48.641Z,93887.00
2023-05-22T15:33:52.263Z,93889.00
2023-05-22T15:37:55.686Z,93884.00
2023-05-22T15:42:06.283Z,93886.00
2023-05-22T15:46:14.738Z,93885.00
2023-05-22T15:50:18.419Z,93875.00
2023-05-22T15:54:21.840Z,93877.00
2023-05-22T15:58:25.598Z,93876.00
2023-05-22T16:02:30.586Z,93885.00
2023-05-22T16:06:34.199Z,93884.00
2023-05-22T16:10:37.944Z,93876.00
2023-05-22T16:14:41.954Z,93885.00
2023-05-22T16:18:47.010Z,93884.00
2023-05-22T16:22:50.580Z,93881.00
2023-05-22T16:26:54.298Z,93882.00
2023-05-22T16:30:57.790Z,93881.00
2023-05-22T16:35:02.995Z,93877.00
2023-05-22T16:39:06.650Z,93885.00
2023-05-22T16:43:11.437Z,93892.00
2023-05-22T16:47:15.009Z,93894.00
2023-05-22T16:51:20.180Z,93891.00
2023-05-22T16:55:23.722Z,93895.00
2023-05-22T16:59:27.403Z,93897.00
2023-05-22T17:03:30.930Z,93898.00
2023-05-22T17:07:36.189Z,93905.00
2023-05-22T17:11:39.730Z,93907.00
2023-05-22T17:15:43.475Z,93911.00
2023-05-22T17:19:47.478Z,93914.00
2023-05-22T17:23:52.483Z,93915.00
2023-05-22T17:27:56.870Z,93909.00
2023-05-22T17:32:00.581Z,93915.00
2023-05-22T17:36:04.262Z,93922.00
2023-05-22T17:40:10.995Z,93915.00
2023-05-22T17:44:14.476Z,93915.00
2023-05-22T17:48:21.670Z,93915.00
2023-05-22T17:52:25.328Z,93908.00
2023-05-22T17:56:30.401Z,93908.00
2023-05-22T18:00:34.033Z,93907.00
2023-05-22T18:04:38.064Z,93901.00
2023-05-22T18:08:41.475Z,93904.00
2023-05-22T18:12:46.697Z,93899.00
2023-05-22T18:16:50.386Z,93893.00
2023-05-22T18:20:53.957Z,93892.00
2023-05-22T18:24:57.849Z,93891.00
2023-05-22T18:29:02.955Z,93894.00
2023-05-22T18:33:06.483Z,93896.00
2023-05-22T18:37:10.073Z,93891.00
2023-05-22T18:41:13.778Z,93891.00
2023-05-22T18:45:18.864Z,93889.00
2023-05-22T18:49:22.559Z,93895.00
2023-05-22T18:53:27.446Z,93889.00
2023-05-22T18:57:30.980Z,93892.00
2023-05-22T19:01:37.252Z,93890.00
2023-05-22T19:05:41.255Z,93896.00
2023-05-22T19:09:44.719Z,93893.00
2023-05-22T19:13:48.858Z,93898.00
2023-05-22T19:17:54.251Z,93897.00
2023-05-22T19:21:57.893Z,93891.00
2023-05-22T19:26:01.621Z,93896.00
2023-05-22T19:30:05.839Z,93902.00
2023-05-22T19:34:10.852Z,93898.00
2023-05-22T19:38:14.398Z,93906.00
2023-05-22T19:42:18.084Z,93903.00
2023-05-22T19:46:22.488Z,93902.00
2023-05-22T19:50:27.827Z,93924.00
2023-05-22T19:54:31.421Z,93926.00
2023-05-22T19:58:35.087Z,93919.00
2023-05-22T20:02:38.673Z,93923.00
2023-05-22T20:06:45.362Z,93921.00
2023-05-22T20:10:49.072Z,93925.00
2023-05-22T20:14:55.150Z,93916.00
2023-05-22T20:18:59.768Z,93930.00
2023-05-22T20:23:04.910Z,93924.00
2023-05-22T20:27:08.509Z,93920.00
2023-05-22T20:31:11.974Z,93927.00
2023-05-22T20:35:18.915Z,93923.00
2023-05-22T20:39:23.979Z,93923.00
2023-05-22T20:43:30.195Z,93925.00
2023-05-22T20:47:35.305Z,93922.00
2023-05-22T20:51:39.888Z,93922.00
2023-05-22T20:55:44.769Z,93911.00
2023-05-22T20:59:48.437Z,93909.00
2023-05-22T21:03:52.227Z,93905.00
2023-05-22T21:07:56.102Z,93908.00
2023-05-22T21:12:01.125Z,93904.00
2023-05-22T21:16:04.747Z,93907.00
2023-05-22T21:20:09.055Z,93909.00
2023-05-22T21:24:12.814Z,93903.00
2023-05-22T21:28:17.968Z,93911.00
2023-05-22T21:32:21.504Z,93909.00
2023-05-22T21:36:25.224Z,93908.00
2023-05-22T21:40:28.737Z,93913.00
2023-05-22T21:44:34.026Z,93910.00
2023-05-22T21:48:37.619Z,93913.00
2023-05-22T21:52:41.085Z,93905.00
2023-05-22T21:56:44.619Z,93914.00
2023-05-22T22:00:49.515Z,93908.00
2023-05-22T22:04:53.174Z,93902.00
2023-05-22T22:08:58.908Z,93901.00
2023-05-22T22:13:03.697Z,93896.00
2023-05-22T22:17:09.372Z,93895.00
2023-05-22T22:21:12.905Z,93889.00
2023-05-22T22:25:17.487Z,93884.00
2023-05-22T22:29:21.040Z,93886.00
2023-05-22T22:33:26.382Z,93886.00
2023-05-22T22:37:29.828Z,93888.00
2023-05-22T22:41:33.473Z,93884.00
2023-05-22T22:45:37.051Z,93871.00
2023-05-22T22:49:42.508Z,93876.00
2023-05-22T22:53:46.060Z,93873.00
2023-05-22T22:57:51.204Z,93884.00
2023-05-22T23:01:54.770Z,93878.00
2023-05-22T23:05:59.818Z,93872.00
2023-05-22T23:10:03.363Z,93871.00
2023-05-22T23:14:08.476Z,93861.00
2023-05-22T23:18:14.113Z,93867.00
2023-05-22T23:22:19.391Z,93868.00
2023-05-22T23:26:23.033Z,93852.00
2023-05-22T23:30:26.477Z,93859.00
2023-05-22T23:34:30.051Z,93859.00
2023-05-22T23:38:34.956Z,93860.00
2023-05-22T23:42:39.650Z,93846.00
2023-05-22T23:46:44.058Z,93858.00
2023-05-22T23:50:47.653Z,93844.00
2023-05-22T23:54:52.572Z,93848.00
2023-05-22T23:58:56.395Z,93844.00
